sensor_id;sensor_type;location;lat;lon;timestamp;P1;durP1;ratioP1;P2;durP2;ratioP2
11819;SDS011;5967;48.944;9.240;2022-11-11T00:01:25;7.70;;;4.57;;
11819;SDS011;5967;48.944;9.240;2022-11-11T00:03:53;6.47;;;4.73;;
11819;SDS011;5967;48.944;9.240;2022-11-11T00:06:19;8.40;;;4.87;;
11819;SDS011;5967;48.944;9.240;2022-11-11T00:08:46;8.27;;;5.23;;
11819;SDS011;5967;48.944;9.240;2022-11-11T00:11:12;8.47;;;4.70;;
11819;SDS011;5967;48.944;9.240;2022-11-11T00:13:39;6.53;;;4.73;;
11819;SDS011;5967;48.944;9.240;2022-11-11T00:16:07;5.90;;;5.07;;
11819;SDS011;5967;48.944;9.240;2022-11-11T00:18:35;7.27;;;5.30;;
11819;SDS011;5967;48.944;9.240;2022-11-11T00:21:20;8.27;;;5.90;;
11819;SDS011;5967;48.944;9.240;2022-11-11T00:24:00;10.03;;;6.13;;
11819;SDS011;5967;48.944;9.240;2022-11-11T00:26:45;6.43;;;5.73;;
11819;SDS011;5967;48.944;9.240;2022-11-11T00:29:10;7.60;;;6.13;;
11819;SDS011;5967;48.944;9.240;2022-11-11T00:31:36;8.43;;;5.77;;
11819;SDS011;5967;48.944;9.240;2022-11-11T00:34:22;9.00;;;5.03;;
11819;SDS011;5967;48.944;9.240;2022-11-11T00:36:47;6.03;;;4.73;;
11819;SDS011;5967;48.944;9.240;2022-11-11T00:39:13;8.30;;;5.63;;
11819;SDS011;5967;48.944;9.240;2022-11-11T00:41:38;10.17;;;4.80;;
11819;SDS011;5967;48.944;9.240;2022-11-11T00:44:04;7.60;;;4.50;;
11819;SDS011;5967;48.944;9.240;2022-11-11T00:46:31;7.07;;;5.10;;
11819;SDS011;5967;48.944;9.240;2022-11-11T00:49:15;6.90;;;4.50;;
11819;SDS011;5967;48.944;9.240;2022-11-11T00:51:59;11.57;;;5.23;;
11819;SDS011;5967;48.944;9.240;2022-11-11T00:54:24;7.23;;;4.43;;
11819;SDS011;5967;48.944;9.240;2022-11-11T00:56:50;9.03;;;4.77;;
11819;SDS011;5967;48.944;9.240;2022-11-11T00:59:15;7.80;;;4.83;;
11819;SDS011;5967;48.944;9.240;2022-11-11T01:01:41;7.70;;;4.60;;
11819;SDS011;5967;48.944;9.240;2022-11-11T01:04:06;7.03;;;4.17;;
11819;SDS011;5967;48.944;9.240;2022-11-11T01:06:32;5.33;;;4.27;;
11819;SDS011;5967;48.944;9.240;2022-11-11T01:09:00;5.83;;;4.43;;
11819;SDS011;5967;48.944;9.240;2022-11-11T01:11:29;7.37;;;4.73;;
11819;SDS011;5967;48.944;9.240;2022-11-11T01:13:54;7.63;;;4.47;;
11819;SDS011;5967;48.944;9.240;2022-11-11T01:16:21;6.03;;;4.00;;
11819;SDS011;5967;48.944;9.240;2022-11-11T01:18:50;5.60;;;4.37;;
11819;SDS011;5967;48.944;9.240;2022-11-11T01:21:20;6.83;;;4.13;;
11819;SDS011;5967;48.944;9.240;2022-11-11T01:23:48;5.87;;;3.90;;
11819;SDS011;5967;48.944;9.240;2022-11-11T01:26:16;5.60;;;4.07;;
11819;SDS011;5967;48.944;9.240;2022-11-11T01:28:43;7.17;;;4.37;;
11819;SDS011;5967;48.944;9.240;2022-11-11T01:31:13;7.83;;;4.57;;
11819;SDS011;5967;48.944;9.240;2022-11-11T01:33:41;6.07;;;4.40;;
11819;SDS011;5967;48.944;9.240;2022-11-11T01:36:12;8.00;;;4.93;;
11819;SDS011;5967;48.944;9.240;2022-11-11T01:38:40;6.43;;;4.00;;
11819;SDS011;5967;48.944;9.240;2022-11-11T01:41:14;6.97;;;4.90;;
11819;SDS011;5967;48.944;9.240;2022-11-11T01:43:56;6.93;;;4.60;;
11819;SDS011;5967;48.944;9.240;2022-11-11T01:48:53;6.87;;;4.37;;
11819;SDS011;5967;48.944;9.240;2022-11-11T01:54:45;4.97;;;3.87;;
11819;SDS011;5967;48.944;9.240;2022-11-11T01:59:46;7.13;;;4.47;;
11819;SDS011;5967;48.944;9.240;2022-11-11T02:02:25;8.57;;;4.00;;
11819;SDS011;5967;48.944;9.240;2022-11-11T02:05:03;6.30;;;4.10;;
11819;SDS011;5967;48.944;9.240;2022-11-11T02:07:48;7.13;;;4.23;;
11819;SDS011;5967;48.944;9.240;2022-11-11T02:10:15;8.73;;;4.20;;
11819;SDS011;5967;48.944;9.240;2022-11-11T02:12:45;6.50;;;4.00;;
11819;SDS011;5967;48.944;9.240;2022-11-11T02:15:29;7.07;;;3.97;;
11819;SDS011;5967;48.944;9.240;2022-11-11T02:17:54;8.20;;;4.50;;
11819;SDS011;5967;48.944;9.240;2022-11-11T02:20:24;6.60;;;3.73;;
11819;SDS011;5967;48.944;9.240;2022-11-11T02:22:56;6.20;;;4.23;;
11819;SDS011;5967;48.944;9.240;2022-11-11T02:25:26;7.17;;;4.10;;
11819;SDS011;5967;48.944;9.240;2022-11-11T02:27:56;5.10;;;3.77;;
11819;SDS011;5967;48.944;9.240;2022-11-11T02:30:25;5.63;;;3.83;;
11819;SDS011;5967;48.944;9.240;2022-11-11T02:32:51;7.30;;;3.87;;
11819;SDS011;5967;48.944;9.240;2022-11-11T02:35:19;4.57;;;3.83;;
11819;SDS011;5967;48.944;9.240;2022-11-11T02:37:51;6.60;;;4.03;;
11819;SDS011;5967;48.944;9.240;2022-11-11T02:40:23;7.47;;;3.73;;
11819;SDS011;5967;48.944;9.240;2022-11-11T02:42:56;5.73;;;4.20;;
11819;SDS011;5967;48.944;9.240;2022-11-11T02:45:22;6.23;;;4.70;;
11819;SDS011;5967;48.944;9.240;2022-11-11T02:47:48;6.53;;;4.07;;
11819;SDS011;5967;48.944;9.240;2022-11-11T02:50:14;6.73;;;4.13;;
11819;SDS011;5967;48.944;9.240;2022-11-11T02:52:40;8.10;;;4.10;;
11819;SDS011;5967;48.944;9.240;2022-11-11T02:55:05;5.50;;;3.63;;
11819;SDS011;5967;48.944;9.240;2022-11-11T02:57:31;7.03;;;3.70;;
11819;SDS011;5967;48.944;9.240;2022-11-11T02:59:58;5.30;;;3.63;;
11819;SDS011;5967;48.944;9.240;2022-11-11T03:02:25;5.77;;;4.07;;
11819;SDS011;5967;48.944;9.240;2022-11-11T03:04:54;5.60;;;3.50;;
11819;SDS011;5967;48.944;9.240;2022-11-11T03:07:21;5.17;;;3.77;;
11819;SDS011;5967;48.944;9.240;2022-11-11T03:09:47;4.00;;;3.60;;
11819;SDS011;5967;48.944;9.240;2022-11-11T03:12:13;7.53;;;3.73;;
11819;SDS011;5967;48.944;9.240;2022-11-11T03:14:39;4.70;;;3.77;;
11819;SDS011;5967;48.944;9.240;2022-11-11T03:17:05;4.37;;;3.60;;
11819;SDS011;5967;48.944;9.240;2022-11-11T03:19:49;4.73;;;3.70;;
11819;SDS011;5967;48.944;9.240;2022-11-11T03:22:15;6.20;;;3.40;;
11819;SDS011;5967;48.944;9.240;2022-11-11T03:24:40;9.30;;;4.23;;
11819;SDS011;5967;48.944;9.240;2022-11-11T03:27:24;5.07;;;3.60;;
11819;SDS011;5967;48.944;9.240;2022-11-11T03:29:50;5.57;;;3.77;;
11819;SDS011;5967;48.944;9.240;2022-11-11T03:32:15;8.10;;;3.90;;
11819;SDS011;5967;48.944;9.240;2022-11-11T03:34:41;5.27;;;3.80;;
11819;SDS011;5967;48.944;9.240;2022-11-11T03:37:07;5.60;;;3.33;;
11819;SDS011;5967;48.944;9.240;2022-11-11T03:39:52;6.17;;;3.60;;
11819;SDS011;5967;48.944;9.240;2022-11-11T03:42:18;6.30;;;3.63;;
11819;SDS011;5967;48.944;9.240;2022-11-11T03:44:44;5.30;;;3.67;;
11819;SDS011;5967;48.944;9.240;2022-11-11T03:47:10;4.90;;;3.80;;
11819;SDS011;5967;48.944;9.240;2022-11-11T03:49:35;4.73;;;3.50;;
11819;SDS011;5967;48.944;9.240;2022-11-11T03:52:01;4.77;;;3.53;;
11819;SDS011;5967;48.944;9.240;2022-11-11T03:54:27;6.83;;;3.33;;
11819;SDS011;5967;48.944;9.240;2022-11-11T03:56:52;7.80;;;3.90;;
11819;SDS011;5967;48.944;9.240;2022-11-11T03:59:38;5.97;;;3.43;;
11819;SDS011;5967;48.944;9.240;2022-11-11T04:02:03;5.20;;;3.33;;
11819;SDS011;5967;48.944;9.240;2022-11-11T04:04:47;3.60;;;3.13;;
11819;SDS011;5967;48.944;9.240;2022-11-11T04:07:32;5.17;;;3.70;;
11819;SDS011;5967;48.944;9.240;2022-11-11T04:10:27;6.50;;;3.60;;
11819;SDS011;5967;48.944;9.240;2022-11-11T04:12:54;5.40;;;3.50;;
11819;SDS011;5967;48.944;9.240;2022-11-11T04:15:40;3.47;;;2.83;;
11819;SDS011;5967;48.944;9.240;2022-11-11T04:18:24;6.17;;;3.43;;
11819;SDS011;5967;48.944;9.240;2022-11-11T04:21:08;5.37;;;3.20;;
11819;SDS011;5967;48.944;9.240;2022-11-11T04:23:52;4.27;;;2.97;;
11819;SDS011;5967;48.944;9.240;2022-11-11T04:26:18;4.73;;;3.30;;
11819;SDS011;5967;48.944;9.240;2022-11-11T04:28:44;4.70;;;3.77;;
11819;SDS011;5967;48.944;9.240;2022-11-11T04:31:28;4.03;;;2.80;;
11819;SDS011;5967;48.944;9.240;2022-11-11T04:33:53;6.33;;;3.40;;
11819;SDS011;5967;48.944;9.240;2022-11-11T04:36:19;4.17;;;3.17;;
11819;SDS011;5967;48.944;9.240;2022-11-11T04:38:44;3.83;;;3.30;;
11819;SDS011;5967;48.944;9.240;2022-11-11T04:41:28;4.27;;;3.27;;
11819;SDS011;5967;48.944;9.240;2022-11-11T04:43:54;5.03;;;3.70;;
11819;SDS011;5967;48.944;9.240;2022-11-11T04:46:38;4.37;;;3.00;;
11819;SDS011;5967;48.944;9.240;2022-11-11T04:49:04;5.60;;;3.17;;
11819;SDS011;5967;48.944;9.240;2022-11-11T04:51:29;5.33;;;3.07;;
11819;SDS011;5967;48.944;9.240;2022-11-11T04:54:15;6.03;;;3.07;;
11819;SDS011;5967;48.944;9.240;2022-11-11T04:56:40;5.07;;;3.20;;
11819;SDS011;5967;48.944;9.240;2022-11-11T04:59:12;7.00;;;3.63;;
11819;SDS011;5967;48.944;9.240;2022-11-11T05:01:40;4.23;;;3.30;;
11819;SDS011;5967;48.944;9.240;2022-11-11T05:04:24;4.20;;;3.33;;
11819;SDS011;5967;48.944;9.240;2022-11-11T05:06:50;4.33;;;3.47;;
11819;SDS011;5967;48.944;9.240;2022-11-11T05:09:34;4.27;;;3.50;;
11819;SDS011;5967;48.944;9.240;2022-11-11T05:12:00;4.17;;;3.30;;
11819;SDS011;5967;48.944;9.240;2022-11-11T05:14:25;4.33;;;3.07;;
11819;SDS011;5967;48.944;9.240;2022-11-11T05:17:09;4.17;;;3.40;;
11819;SDS011;5967;48.944;9.240;2022-11-11T05:19:53;6.33;;;3.50;;
11819;SDS011;5967;48.944;9.240;2022-11-11T05:22:38;4.33;;;3.43;;
11819;SDS011;5967;48.944;9.240;2022-11-11T05:25:05;5.37;;;3.40;;
11819;SDS011;5967;48.944;9.240;2022-11-11T05:27:49;4.50;;;3.67;;
11819;SDS011;5967;48.944;9.240;2022-11-11T05:30:16;5.90;;;3.47;;
11819;SDS011;5967;48.944;9.240;2022-11-11T05:32:42;7.73;;;3.60;;
11819;SDS011;5967;48.944;9.240;2022-11-11T05:35:09;6.63;;;3.50;;
11819;SDS011;5967;48.944;9.240;2022-11-11T05:37:36;6.70;;;4.00;;
11819;SDS011;5967;48.944;9.240;2022-11-11T05:40:02;7.03;;;4.13;;
11819;SDS011;5967;48.944;9.240;2022-11-11T05:42:28;8.53;;;3.80;;
11819;SDS011;5967;48.944;9.240;2022-11-11T05:44:54;7.53;;;3.63;;
11819;SDS011;5967;48.944;9.240;2022-11-11T05:47:19;5.93;;;3.50;;
11819;SDS011;5967;48.944;9.240;2022-11-11T05:49:45;4.37;;;3.30;;
11819;SDS011;5967;48.944;9.240;2022-11-11T05:52:11;6.77;;;3.93;;
11819;SDS011;5967;48.944;9.240;2022-11-11T05:54:37;6.03;;;4.07;;
11819;SDS011;5967;48.944;9.240;2022-11-11T05:57:04;7.80;;;4.57;;
11819;SDS011;5967;48.944;9.240;2022-11-11T05:59:29;6.57;;;4.13;;
11819;SDS011;5967;48.944;9.240;2022-11-11T06:01:55;6.03;;;4.40;;
11819;SDS011;5967;48.944;9.240;2022-11-11T06:04:21;5.50;;;4.20;;
11819;SDS011;5967;48.944;9.240;2022-11-11T06:06:47;5.53;;;3.70;;
11819;SDS011;5967;48.944;9.240;2022-11-11T06:09:12;6.17;;;3.97;;
11819;SDS011;5967;48.944;9.240;2022-11-11T06:11:38;8.27;;;5.20;;
11819;SDS011;5967;48.944;9.240;2022-11-11T06:14:04;9.37;;;4.80;;
11819;SDS011;5967;48.944;9.240;2022-11-11T06:16:29;8.27;;;6.17;;
11819;SDS011;5967;48.944;9.240;2022-11-11T06:18:55;6.60;;;4.00;;
11819;SDS011;5967;48.944;9.240;2022-11-11T06:21:21;5.10;;;4.00;;
11819;SDS011;5967;48.944;9.240;2022-11-11T06:23:46;7.27;;;4.63;;
11819;SDS011;5967;48.944;9.240;2022-11-11T06:26:12;4.87;;;4.07;;
11819;SDS011;5967;48.944;9.240;2022-11-11T06:31:21;8.03;;;4.50;;
11819;SDS011;5967;48.944;9.240;2022-11-11T06:33:50;9.33;;;5.73;;
11819;SDS011;5967;48.944;9.240;2022-11-11T06:36:18;21.40;;;9.80;;
11819;SDS011;5967;48.944;9.240;2022-11-11T06:38:44;19.63;;;11.43;;
11819;SDS011;5967;48.944;9.240;2022-11-11T06:41:11;20.23;;;10.03;;
11819;SDS011;5967;48.944;9.240;2022-11-11T06:43:37;13.77;;;8.37;;
11819;SDS011;5967;48.944;9.240;2022-11-11T06:46:03;12.23;;;7.47;;
11819;SDS011;5967;48.944;9.240;2022-11-11T06:48:29;15.30;;;8.43;;
11819;SDS011;5967;48.944;9.240;2022-11-11T06:50:59;19.80;;;8.80;;
11819;SDS011;5967;48.944;9.240;2022-11-11T06:53:27;16.50;;;8.37;;
11819;SDS011;5967;48.944;9.240;2022-11-11T06:55:53;10.63;;;6.17;;
11819;SDS011;5967;48.944;9.240;2022-11-11T06:58:19;9.10;;;6.00;;
11819;SDS011;5967;48.944;9.240;2022-11-11T07:00:46;8.30;;;5.10;;
11819;SDS011;5967;48.944;9.240;2022-11-11T07:03:16;6.67;;;4.93;;
11819;SDS011;5967;48.944;9.240;2022-11-11T07:05:44;8.13;;;4.87;;
11819;SDS011;5967;48.944;9.240;2022-11-11T07:08:11;7.07;;;5.10;;
11819;SDS011;5967;48.944;9.240;2022-11-11T07:10:39;6.83;;;4.70;;
11819;SDS011;5967;48.944;9.240;2022-11-11T07:13:08;6.77;;;4.83;;
11819;SDS011;5967;48.944;9.240;2022-11-11T07:15:35;7.33;;;4.90;;
11819;SDS011;5967;48.944;9.240;2022-11-11T07:18:01;8.10;;;5.27;;
11819;SDS011;5967;48.944;9.240;2022-11-11T07:20:28;7.63;;;4.47;;
11819;SDS011;5967;48.944;9.240;2022-11-11T07:22:54;9.37;;;4.50;;
11819;SDS011;5967;48.944;9.240;2022-11-11T07:25:20;9.13;;;5.50;;
11819;SDS011;5967;48.944;9.240;2022-11-11T07:27:45;9.30;;;5.87;;
11819;SDS011;5967;48.944;9.240;2022-11-11T07:30:11;11.57;;;6.57;;
11819;SDS011;5967;48.944;9.240;2022-11-11T07:32:42;7.87;;;6.57;;
11819;SDS011;5967;48.944;9.240;2022-11-11T07:35:09;9.63;;;5.63;;
11819;SDS011;5967;48.944;9.240;2022-11-11T07:37:35;7.60;;;5.70;;
11819;SDS011;5967;48.944;9.240;2022-11-11T07:40:02;7.70;;;5.87;;
11819;SDS011;5967;48.944;9.240;2022-11-11T07:42:27;8.60;;;6.53;;
11819;SDS011;5967;48.944;9.240;2022-11-11T07:44:53;12.83;;;7.30;;
11819;SDS011;5967;48.944;9.240;2022-11-11T07:47:19;10.97;;;7.03;;
11819;SDS011;5967;48.944;9.240;2022-11-11T07:49:44;8.73;;;5.30;;
11819;SDS011;5967;48.944;9.240;2022-11-11T07:52:10;8.60;;;5.30;;
11819;SDS011;5967;48.944;9.240;2022-11-11T07:54:35;5.53;;;4.37;;
11819;SDS011;5967;48.944;9.240;2022-11-11T07:57:01;8.10;;;4.47;;
11819;SDS011;5967;48.944;9.240;2022-11-11T07:59:26;6.73;;;4.77;;
11819;SDS011;5967;48.944;9.240;2022-11-11T08:01:52;7.77;;;4.70;;
11819;SDS011;5967;48.944;9.240;2022-11-11T08:04:18;7.70;;;4.07;;
11819;SDS011;5967;48.944;9.240;2022-11-11T08:06:43;7.57;;;4.17;;
11819;SDS011;5967;48.944;9.240;2022-11-11T08:09:09;9.33;;;4.30;;
11819;SDS011;5967;48.944;9.240;2022-11-11T08:11:34;7.37;;;4.37;;
11819;SDS011;5967;48.944;9.240;2022-11-11T08:14:18;7.27;;;4.97;;
11819;SDS011;5967;48.944;9.240;2022-11-11T08:16:44;5.30;;;4.80;;
11819;SDS011;5967;48.944;9.240;2022-11-11T08:19:09;7.00;;;4.47;;
11819;SDS011;5967;48.944;9.240;2022-11-11T08:21:35;6.93;;;4.83;;
11819;SDS011;5967;48.944;9.240;2022-11-11T08:24:01;7.37;;;5.50;;
11819;SDS011;5967;48.944;9.240;2022-11-11T08:26:26;9.17;;;5.10;;
11819;SDS011;5967;48.944;9.240;2022-11-11T08:28:52;11.97;;;5.20;;
11819;SDS011;5967;48.944;9.240;2022-11-11T08:31:18;10.23;;;4.80;;
11819;SDS011;5967;48.944;9.240;2022-11-11T08:33:45;7.00;;;5.40;;
11819;SDS011;5967;48.944;9.240;2022-11-11T08:36:11;6.97;;;4.33;;
11819;SDS011;5967;48.944;9.240;2022-11-11T08:38:37;8.10;;;4.03;;
11819;SDS011;5967;48.944;9.240;2022-11-11T08:41:04;6.00;;;4.17;;
11819;SDS011;5967;48.944;9.240;2022-11-11T08:43:30;7.00;;;4.67;;
11819;SDS011;5967;48.944;9.240;2022-11-11T08:45:57;8.47;;;4.37;;
11819;SDS011;5967;48.944;9.240;2022-11-11T08:48:23;6.37;;;4.17;;
11819;SDS011;5967;48.944;9.240;2022-11-11T08:50:50;5.80;;;4.00;;
11819;SDS011;5967;48.944;9.240;2022-11-11T08:53:17;6.37;;;4.37;;
11819;SDS011;5967;48.944;9.240;2022-11-11T08:55:43;9.27;;;4.50;;
11819;SDS011;5967;48.944;9.240;2022-11-11T08:58:09;7.33;;;4.43;;
11819;SDS011;5967;48.944;9.240;2022-11-11T09:00:35;6.17;;;4.50;;
11819;SDS011;5967;48.944;9.240;2022-11-11T09:03:05;6.70;;;4.50;;
11819;SDS011;5967;48.944;9.240;2022-11-11T09:05:31;9.23;;;4.60;;
11819;SDS011;5967;48.944;9.240;2022-11-11T09:08:01;9.37;;;5.40;;
11819;SDS011;5967;48.944;9.240;2022-11-11T09:10:27;6.83;;;4.30;;
11819;SDS011;5967;48.944;9.240;2022-11-11T09:12:56;8.80;;;4.93;;
11819;SDS011;5967;48.944;9.240;2022-11-11T09:15:22;6.37;;;5.63;;
11819;SDS011;5967;48.944;9.240;2022-11-11T09:17:48;7.57;;;5.23;;
11819;SDS011;5967;48.944;9.240;2022-11-11T09:20:13;5.77;;;5.00;;
11819;SDS011;5967;48.944;9.240;2022-11-11T09:22:43;12.80;;;4.50;;
11819;SDS011;5967;48.944;9.240;2022-11-11T09:25:13;5.93;;;4.17;;
11819;SDS011;5967;48.944;9.240;2022-11-11T09:27:39;7.70;;;4.53;;
11819;SDS011;5967;48.944;9.240;2022-11-11T09:30:05;6.60;;;5.20;;
11819;SDS011;5967;48.944;9.240;2022-11-11T09:32:31;5.80;;;4.00;;
11819;SDS011;5967;48.944;9.240;2022-11-11T09:34:57;8.20;;;4.13;;
11819;SDS011;5967;48.944;9.240;2022-11-11T09:37:23;5.27;;;4.47;;
11819;SDS011;5967;48.944;9.240;2022-11-11T09:39:48;6.07;;;3.93;;
11819;SDS011;5967;48.944;9.240;2022-11-11T09:45:22;6.03;;;3.50;;
11819;SDS011;5967;48.944;9.240;2022-11-11T09:47:57;6.67;;;3.33;;
11819;SDS011;5967;48.944;9.240;2022-11-11T09:50:25;4.37;;;3.80;;
11819;SDS011;5967;48.944;9.240;2022-11-11T09:52:57;5.10;;;3.97;;
11819;SDS011;5967;48.944;9.240;2022-11-11T09:55:40;6.67;;;4.00;;
11819;SDS011;5967;48.944;9.240;2022-11-11T09:58:18;5.00;;;3.40;;
11819;SDS011;5967;48.944;9.240;2022-11-11T10:00:50;4.53;;;3.47;;
11819;SDS011;5967;48.944;9.240;2022-11-11T10:03:24;5.20;;;3.63;;
11819;SDS011;5967;48.944;9.240;2022-11-11T10:05:53;6.97;;;4.13;;
11819;SDS011;5967;48.944;9.240;2022-11-11T10:10:53;6.83;;;4.70;;
11819;SDS011;5967;48.944;9.240;2022-11-11T10:13:29;11.53;;;5.60;;
11819;SDS011;5967;48.944;9.240;2022-11-11T10:19:09;7.60;;;4.80;;
11819;SDS011;5967;48.944;9.240;2022-11-11T10:21:51;4.60;;;4.13;;
11819;SDS011;5967;48.944;9.240;2022-11-11T10:24:25;10.17;;;6.23;;
11819;SDS011;5967;48.944;9.240;2022-11-11T10:27:03;6.43;;;5.83;;
11819;SDS011;5967;48.944;9.240;2022-11-11T10:29:39;10.90;;;7.00;;
11819;SDS011;5967;48.944;9.240;2022-11-11T10:32:12;10.17;;;7.03;;
11819;SDS011;5967;48.944;9.240;2022-11-11T10:34:45;7.83;;;3.90;;
11819;SDS011;5967;48.944;9.240;2022-11-11T10:37:22;7.40;;;4.50;;
11819;SDS011;5967;48.944;9.240;2022-11-11T10:42:36;6.97;;;4.00;;
11819;SDS011;5967;48.944;9.240;2022-11-11T10:45:02;4.87;;;3.57;;
11819;SDS011;5967;48.944;9.240;2022-11-11T10:47:41;6.17;;;3.60;;
11819;SDS011;5967;48.944;9.240;2022-11-11T10:50:15;3.90;;;3.50;;
11819;SDS011;5967;48.944;9.240;2022-11-11T10:55:52;8.30;;;4.67;;
11819;SDS011;5967;48.944;9.240;2022-11-11T11:01:28;5.83;;;3.80;;
11819;SDS011;5967;48.944;9.240;2022-11-11T11:04:30;8.53;;;3.30;;
11819;SDS011;5967;48.944;9.240;2022-11-11T11:06:58;4.43;;;3.07;;
11819;SDS011;5967;48.944;9.240;2022-11-11T11:09:27;5.00;;;3.90;;
11819;SDS011;5967;48.944;9.240;2022-11-11T11:12:02;5.97;;;3.57;;
11819;SDS011;5967;48.944;9.240;2022-11-11T11:14:41;3.77;;;2.90;;
11819;SDS011;5967;48.944;9.240;2022-11-11T11:17:12;4.53;;;3.63;;
11819;SDS011;5967;48.944;9.240;2022-11-11T11:19:41;6.17;;;3.20;;
11819;SDS011;5967;48.944;9.240;2022-11-11T11:22:06;8.50;;;3.53;;
11819;SDS011;5967;48.944;9.240;2022-11-11T11:24:33;4.70;;;3.90;;
11819;SDS011;5967;48.944;9.240;2022-11-11T11:27:05;5.50;;;2.97;;
11819;SDS011;5967;48.944;9.240;2022-11-11T11:29:41;4.97;;;3.00;;
11819;SDS011;5967;48.944;9.240;2022-11-11T11:32:12;3.30;;;2.47;;
11819;SDS011;5967;48.944;9.240;2022-11-11T11:35:08;6.07;;;4.27;;
11819;SDS011;5967;48.944;9.240;2022-11-11T11:37:47;4.43;;;2.80;;
11819;SDS011;5967;48.944;9.240;2022-11-11T11:40:14;9.13;;;3.40;;
11819;SDS011;5967;48.944;9.240;2022-11-11T11:42:40;7.90;;;2.87;;
11819;SDS011;5967;48.944;9.240;2022-11-11T11:45:14;4.53;;;2.60;;
11819;SDS011;5967;48.944;9.240;2022-11-11T11:50:32;6.03;;;3.07;;
11819;SDS011;5967;48.944;9.240;2022-11-11T12:01:17;5.47;;;2.60;;
11819;SDS011;5967;48.944;9.240;2022-11-11T12:04:01;3.77;;;2.13;;
11819;SDS011;5967;48.944;9.240;2022-11-11T12:06:44;4.40;;;2.20;;
11819;SDS011;5967;48.944;9.240;2022-11-11T12:12:48;3.10;;;2.47;;
11819;SDS011;5967;48.944;9.240;2022-11-11T12:18:25;4.93;;;2.90;;
11819;SDS011;5967;48.944;9.240;2022-11-11T12:21:14;6.70;;;2.33;;
11819;SDS011;5967;48.944;9.240;2022-11-11T12:26:36;7.97;;;2.77;;
11819;SDS011;5967;48.944;9.240;2022-11-11T12:29:43;5.77;;;2.53;;
11819;SDS011;5967;48.944;9.240;2022-11-11T12:51:53;3.10;;;1.90;;
11819;SDS011;5967;48.944;9.240;2022-11-11T12:54:28;4.63;;;2.30;;
11819;SDS011;5967;48.944;9.240;2022-11-11T12:59:52;6.90;;;2.60;;
11819;SDS011;5967;48.944;9.240;2022-11-11T13:05:19;2.73;;;2.23;;
11819;SDS011;5967;48.944;9.240;2022-11-11T13:16:59;6.00;;;2.33;;
11819;SDS011;5967;48.944;9.240;2022-11-11T13:24:37;4.97;;;2.17;;
11819;SDS011;5967;48.944;9.240;2022-11-11T13:32:18;4.20;;;2.27;;
11819;SDS011;5967;48.944;9.240;2022-11-11T13:34:48;5.20;;;2.67;;
11819;SDS011;5967;48.944;9.240;2022-11-11T13:37:20;4.00;;;2.20;;
11819;SDS011;5967;48.944;9.240;2022-11-11T13:39:52;4.40;;;2.27;;
11819;SDS011;5967;48.944;9.240;2022-11-11T13:42:41;3.17;;;2.17;;
11819;SDS011;5967;48.944;9.240;2022-11-11T13:45:26;5.93;;;1.87;;
11819;SDS011;5967;48.944;9.240;2022-11-11T13:48:00;3.07;;;1.93;;
11819;SDS011;5967;48.944;9.240;2022-11-11T13:50:30;4.40;;;1.97;;
11819;SDS011;5967;48.944;9.240;2022-11-11T13:53:02;5.17;;;2.13;;
11819;SDS011;5967;48.944;9.240;2022-11-11T13:58:01;5.07;;;2.27;;
11819;SDS011;5967;48.944;9.240;2022-11-11T14:00:30;4.00;;;2.00;;
11819;SDS011;5967;48.944;9.240;2022-11-11T14:05:46;3.73;;;1.90;;
11819;SDS011;5967;48.944;9.240;2022-11-11T14:13:49;4.47;;;2.33;;
11819;SDS011;5967;48.944;9.240;2022-11-11T14:19:21;7.60;;;3.30;;
11819;SDS011;5967;48.944;9.240;2022-11-11T14:21:55;8.03;;;3.23;;
11819;SDS011;5967;48.944;9.240;2022-11-11T14:24:43;5.67;;;2.80;;
11819;SDS011;5967;48.944;9.240;2022-11-11T14:29:36;5.57;;;2.97;;
11819;SDS011;5967;48.944;9.240;2022-11-11T14:35:31;4.37;;;2.57;;
11819;SDS011;5967;48.944;9.240;2022-11-11T14:40:41;7.50;;;2.53;;
11819;SDS011;5967;48.944;9.240;2022-11-11T14:46:00;6.80;;;3.50;;
11819;SDS011;5967;48.944;9.240;2022-11-11T14:52:00;5.27;;;2.47;;
11819;SDS011;5967;48.944;9.240;2022-11-11T14:54:04;4.27;;;3.13;;
11819;SDS011;5967;48.944;9.240;2022-11-11T14:56:39;6.07;;;3.10;;
11819;SDS011;5967;48.944;9.240;2022-11-11T14:59:06;7.90;;;3.33;;
11819;SDS011;5967;48.944;9.240;2022-11-11T15:01:37;6.50;;;3.03;;
11819;SDS011;5967;48.944;9.240;2022-11-11T15:04:03;7.23;;;3.07;;
11819;SDS011;5967;48.944;9.240;2022-11-11T15:09:11;5.97;;;3.60;;
11819;SDS011;5967;48.944;9.240;2022-11-11T15:23:30;8.47;;;3.50;;
11819;SDS011;5967;48.944;9.240;2022-11-11T15:26:01;9.03;;;3.80;;
11819;SDS011;5967;48.944;9.240;2022-11-11T15:36:53;8.93;;;3.80;;
11819;SDS011;5967;48.944;9.240;2022-11-11T15:39:30;8.80;;;4.07;;
11819;SDS011;5967;48.944;9.240;2022-11-11T15:42:08;8.73;;;3.53;;
11819;SDS011;5967;48.944;9.240;2022-11-11T15:44:56;6.93;;;3.23;;
11819;SDS011;5967;48.944;9.240;2022-11-11T15:47:25;7.47;;;3.97;;
11819;SDS011;5967;48.944;9.240;2022-11-11T15:49:52;8.03;;;4.30;;
11819;SDS011;5967;48.944;9.240;2022-11-11T15:54:47;9.80;;;4.53;;
11819;SDS011;5967;48.944;9.240;2022-11-11T15:57:27;16.07;;;5.30;;
11819;SDS011;5967;48.944;9.240;2022-11-11T15:59:56;10.53;;;4.77;;
11819;SDS011;5967;48.944;9.240;2022-11-11T16:02:24;8.63;;;4.67;;
11819;SDS011;5967;48.944;9.240;2022-11-11T16:04:54;9.03;;;4.53;;
11819;SDS011;5967;48.944;9.240;2022-11-11T16:07:23;9.93;;;5.43;;
11819;SDS011;5967;48.944;9.240;2022-11-11T16:09:57;9.93;;;5.23;;
11819;SDS011;5967;48.944;9.240;2022-11-11T16:12:35;10.80;;;5.63;;
11819;SDS011;5967;48.944;9.240;2022-11-11T16:15:07;9.10;;;5.90;;
11819;SDS011;5967;48.944;9.240;2022-11-11T16:17:38;10.33;;;5.80;;
11819;SDS011;5967;48.944;9.240;2022-11-11T16:20:10;9.37;;;5.60;;
11819;SDS011;5967;48.944;9.240;2022-11-11T16:22:40;50.80;;;30.30;;
11819;SDS011;5967;48.944;9.240;2022-11-11T16:25:14;100.07;;;60.23;;
11819;SDS011;5967;48.944;9.240;2022-11-11T16:27:44;57.77;;;38.43;;
11819;SDS011;5967;48.944;9.240;2022-11-11T16:30:17;28.93;;;19.70;;
11819;SDS011;5967;48.944;9.240;2022-11-11T16:32:57;18.20;;;11.10;;
11819;SDS011;5967;48.944;9.240;2022-11-11T16:35:39;14.93;;;9.80;;
11819;SDS011;5967;48.944;9.240;2022-11-11T16:38:04;18.60;;;11.43;;
11819;SDS011;5967;48.944;9.240;2022-11-11T16:43:15;19.27;;;10.97;;
11819;SDS011;5967;48.944;9.240;2022-11-11T16:45:48;18.33;;;13.07;;
11819;SDS011;5967;48.944;9.240;2022-11-11T16:50:57;16.53;;;11.63;;
11819;SDS011;5967;48.944;9.240;2022-11-11T16:53:28;15.67;;;9.93;;
11819;SDS011;5967;48.944;9.240;2022-11-11T16:55:59;29.50;;;15.97;;
11819;SDS011;5967;48.944;9.240;2022-11-11T16:58:26;33.83;;;20.87;;
11819;SDS011;5967;48.944;9.240;2022-11-11T17:01:01;44.90;;;28.70;;
11819;SDS011;5967;48.944;9.240;2022-11-11T17:03:28;46.20;;;27.07;;
11819;SDS011;5967;48.944;9.240;2022-11-11T17:08:37;27.37;;;17.43;;
11819;SDS011;5967;48.944;9.240;2022-11-11T17:11:49;25.13;;;16.30;;
11819;SDS011;5967;48.944;9.240;2022-11-11T17:14:05;22.90;;;13.87;;
11819;SDS011;5967;48.944;9.240;2022-11-11T17:16:31;21.27;;;12.43;;
11819;SDS011;5967;48.944;9.240;2022-11-11T17:19:00;17.57;;;12.17;;
11819;SDS011;5967;48.944;9.240;2022-11-11T17:21:27;19.07;;;11.77;;
11819;SDS011;5967;48.944;9.240;2022-11-11T17:23:52;18.47;;;12.07;;
11819;SDS011;5967;48.944;9.240;2022-11-11T17:26:18;16.70;;;12.03;;
11819;SDS011;5967;48.944;9.240;2022-11-11T17:28:44;19.77;;;14.20;;
11819;SDS011;5967;48.944;9.240;2022-11-11T17:31:11;21.10;;;13.57;;
11819;SDS011;5967;48.944;9.240;2022-11-11T17:33:37;14.93;;;11.30;;
11819;SDS011;5967;48.944;9.240;2022-11-11T17:36:03;17.43;;;11.60;;
11819;SDS011;5967;48.944;9.240;2022-11-11T17:38:33;17.97;;;10.70;;
11819;SDS011;5967;48.944;9.240;2022-11-11T17:41:00;16.97;;;11.00;;
11819;SDS011;5967;48.944;9.240;2022-11-11T17:43:26;16.93;;;10.17;;
11819;SDS011;5967;48.944;9.240;2022-11-11T17:45:51;14.73;;;9.80;;
11819;SDS011;5967;48.944;9.240;2022-11-11T17:48:17;12.30;;;9.50;;
11819;SDS011;5967;48.944;9.240;2022-11-11T17:50:42;14.90;;;9.53;;
11819;SDS011;5967;48.944;9.240;2022-11-11T17:53:08;11.70;;;9.13;;